createdAt,value
2022-09-28T00:00:58.250Z,7.97
2022-09-28T00:03:25.929Z,6.93
2022-09-28T00:05:53.576Z,6.32
2022-09-28T00:08:21.193Z,6.32
2022-09-28T00:10:57.196Z,6.65
2022-09-28T00:13:25.618Z,7.20
2022-09-28T00:16:04.648Z,6.30
2022-09-28T00:18:32.972Z,5.20
2022-09-28T00:21:01.812Z,5.80
2022-09-28T00:23:29.435Z,6.75
2022-09-28T00:26:02.895Z,4.93
2022-09-28T00:28:31.291Z,6.53
2022-09-28T00:30:59.322Z,7.78
2022-09-28T00:33:26.988Z,7.13
2022-09-28T00:35:57.057Z,6.15
2022-09-28T00:38:28.626Z,7.43
2022-09-28T00:40:59.483Z,6.50
2022-09-28T00:43:28.877Z,6.82
2022-09-28T00:46:01.599Z,6.68
2022-09-28T00:48:33.406Z,7.60
2022-09-28T00:51:06.449Z,7.18
2022-09-28T00:53:38.413Z,6.95
2022-09-28T00:56:11.302Z,7.70
2022-09-28T00:58:43.124Z,8.05
2022-09-28T01:01:11.958Z,6.60
2022-09-28T01:03:41.262Z,7.13
2022-09-28T01:06:09.923Z,6.80
2022-09-28T01:08:39.335Z,8.75
2022-09-28T01:11:08.492Z,5.60
2022-09-28T01:13:36.425Z,7.75
2022-09-28T01:16:12.072Z,6.93
2022-09-28T01:18:48.603Z,7.03
2022-09-28T01:21:19.690Z,7.00
2022-09-28T01:24:10.285Z,8.27
2022-09-28T01:26:49.464Z,7.85
2022-09-28T01:29:23.103Z,7.95
2022-09-28T01:31:54.554Z,7.90
2022-09-28T01:34:29.827Z,9.15
2022-09-28T01:37:02.560Z,8.73
2022-09-28T01:39:35.757Z,9.20
2022-09-28T01:42:10.299Z,9.40
2022-09-28T01:44:43.307Z,9.68
2022-09-28T01:47:15.405Z,10.40
2022-09-28T01:49:47.951Z,10.55
2022-09-28T01:52:19.998Z,11.00
2022-09-28T01:54:53.366Z,10.65
2022-09-28T01:57:26.891Z,9.32
2022-09-28T02:00:02.060Z,10.80
2022-09-28T02:02:35.234Z,10.65
2022-09-28T02:05:08.860Z,12.88
2022-09-28T02:07:40.777Z,14.60
2022-09-28T02:10:13.993Z,12.13
2022-09-28T02:12:47.344Z,13.85
2022-09-28T02:15:21.074Z,13.77
2022-09-28T02:17:49.211Z,15.43
2022-09-28T02:20:17.565Z,16.55
2022-09-28T02:22:50.242Z,14.52
2022-09-28T02:25:24.132Z,16.55
2022-09-28T02:27:57.663Z,16.95
2022-09-28T02:30:25.368Z,16.40
2022-09-28T02:32:57.168Z,17.15
2022-09-28T02:35:25.114Z,16.92
2022-09-28T02:37:52.773Z,19.48
2022-09-28T02:40:23.019Z,20.77
2022-09-28T02:43:03.011Z,19.48
2022-09-28T02:45:45.232Z,18.98
2022-09-28T02:48:42.710Z,16.92
2022-09-28T02:51:21.725Z,19.65
2022-09-28T02:54:35.093Z,17.25
2022-09-28T02:57:13.690Z,15.95
2022-09-28T02:59:50.408Z,19.48
2022-09-28T03:02:26.982Z,17.70
2022-09-28T03:05:10.687Z,18.98
2022-09-28T03:07:42.966Z,19.02
2022-09-28T03:10:17.668Z,16.73
2022-09-28T03:12:47.376Z,17.35
2022-09-28T03:15:23.259Z,16.67
2022-09-28T03:17:51.308Z,17.77
2022-09-28T03:20:19.564Z,19.75
2022-09-28T03:23:00.509Z,18.40
2022-09-28T03:25:35.305Z,21.10
2022-09-28T03:28:03.065Z,18.77
2022-09-28T03:30:35.713Z,19.58
2022-09-28T03:33:04.265Z,18.77
2022-09-28T03:35:33.344Z,19.52
2022-09-28T03:38:00.921Z,21.50
2022-09-28T03:40:30.997Z,21.67
2022-09-28T03:42:59.776Z,19.80
2022-09-28T03:45:27.558Z,19.15
2022-09-28T03:47:56.804Z,20.75
2022-09-28T03:50:24.472Z,18.80
2022-09-28T03:52:52.463Z,21.85
2022-09-28T03:55:20.137Z,22.17
2022-09-28T03:57:54.817Z,21.15
2022-09-28T04:00:23.045Z,20.33
2022-09-28T04:02:50.830Z,21.58
2022-09-28T04:05:19.788Z,18.70
2022-09-28T04:07:48.662Z,19.92
2022-09-28T04:10:16.317Z,20.55
2022-09-28T04:12:44.750Z,21.45
2022-09-28T04:15:12.456Z,20.48
2022-09-28T04:17:40.426Z,20.35
2022-09-28T04:20:15.718Z,24.65
2022-09-28T04:23:01.504Z,21.90
2022-09-28T04:25:29.810Z,23.10
2022-09-28T04:28:15.438Z,22.50
2022-09-28T04:30:43.121Z,23.42
2022-09-28T04:33:10.854Z,23.48
2022-09-28T04:35:38.473Z,24.35
2022-09-28T04:38:07.444Z,24.15
2022-09-28T04:40:35.204Z,24.60
2022-09-28T04:43:02.970Z,23.05
2022-09-28T04:45:30.681Z,23.15
2022-09-28T04:48:07.440Z,25.23
2022-09-28T04:51:10.345Z,22.75
2022-09-28T04:53:39.404Z,23.77
2022-09-28T04:56:09.091Z,22.55
2022-09-28T04:58:39.556Z,22.05
2022-09-28T05:01:09.397Z,24.20
2022-09-28T05:03:57.462Z,23.00
2022-09-28T05:06:44.245Z,23.05
2022-09-28T05:09:14.740Z,23.00
2022-09-28T05:11:42.972Z,23.23
2022-09-28T05:14:16.341Z,25.40
2022-09-28T05:16:44.148Z,21.90
2022-09-28T05:19:27.280Z,21.80
2022-09-28T05:22:03.987Z,21.30
2022-09-28T05:24:37.843Z,22.67
2022-09-28T05:27:05.711Z,27.23
2022-09-28T05:29:33.465Z,21.05
2022-09-28T05:32:21.392Z,24.48
2022-09-28T05:35:08.580Z,24.00
2022-09-28T05:37:42.618Z,22.65
2022-09-28T05:40:12.563Z,23.58
2022-09-28T05:42:40.678Z,22.77
2022-09-28T05:45:10.068Z,22.17
2022-09-28T05:47:40.300Z,21.48
2022-09-28T05:50:11.742Z,26.05
2022-09-28T05:52:39.917Z,26.88
2022-09-28T05:55:11.106Z,26.05
2022-09-28T05:57:38.864Z,23.42
2022-09-28T06:00:09.438Z,25.58
2022-09-28T06:02:57.440Z,25.65
2022-09-28T06:05:25.611Z,27.20
2022-09-28T06:07:53.424Z,24.70
2022-09-28T06:10:23.298Z,24.35
2022-09-28T06:12:53.813Z,25.65
2022-09-28T06:15:21.852Z,28.50
2022-09-28T06:17:49.651Z,26.75
2022-09-28T06:20:38.240Z,25.33
2022-09-28T06:23:28.516Z,27.13
2022-09-28T06:26:00.215Z,24.95
2022-09-28T06:28:28.345Z,28.23
2022-09-28T06:30:57.036Z,25.65
2022-09-28T06:33:25.538Z,27.30
2022-09-28T06:35:53.512Z,27.10
2022-09-28T06:38:21.334Z,28.42
2022-09-28T06:40:50.337Z,28.38
2022-09-28T06:43:19.528Z,26.13
2022-09-28T06:46:06.984Z,27.77
2022-09-28T06:49:00.439Z,26.88
2022-09-28T06:51:55.067Z,29.17
2022-09-28T06:54:34.061Z,29.67
2022-09-28T06:57:07.618Z,29.27
2022-09-28T06:59:36.627Z,27.42
2022-09-28T07:02:05.125Z,29.13
2022-09-28T07:04:53.085Z,30.70
2022-09-28T07:07:40.320Z,30.13
2022-09-28T07:10:20.101Z,30.77
2022-09-28T07:13:47.577Z,28.00
2022-09-28T07:16:13.979Z,28.17
2022-09-28T07:18:42.355Z,30.42
2022-09-28T07:21:16.196Z,30.00
2022-09-28T07:23:54.118Z,30.33
2022-09-28T07:26:25.597Z,31.27
2022-09-28T07:29:14.003Z,33.63
2022-09-28T07:31:55.584Z,29.00
2022-09-28T07:34:43.629Z,29.45
2022-09-28T07:37:15.766Z,26.58
2022-09-28T07:40:00.982Z,25.63
2022-09-28T07:42:31.803Z,25.52
2022-09-28T07:44:59.976Z,21.63
2022-09-28T07:47:34.680Z,22.65
2022-09-28T07:50:21.459Z,22.80
2022-09-28T07:52:56.783Z,23.10
2022-09-28T07:55:33.958Z,20.75
2022-09-28T07:58:20.605Z,22.05
2022-09-28T08:01:14.907Z,23.05
2022-09-28T08:03:47.163Z,27.42
2022-09-28T08:06:17.100Z,22.25
2022-09-28T08:08:45.428Z,22.80
2022-09-28T08:11:17.733Z,25.13
2022-09-28T08:14:02.568Z,25.75
2022-09-28T08:16:54.138Z,24.63
2022-09-28T08:20:30.486Z,26.45
2022-09-28T08:23:04.062Z,28.42
2022-09-28T08:25:32.341Z,26.27
2022-09-28T08:28:03.414Z,28.13
2022-09-28T08:30:33.917Z,30.50
2022-09-28T08:33:27.609Z,28.55
2022-09-28T08:36:14.856Z,27.88
2022-09-28T08:39:01.139Z,28.70
2022-09-28T08:41:53.778Z,25.80
2022-09-28T08:47:52.529Z,28.75
2022-09-28T08:50:33.961Z,30.48
2022-09-28T08:53:41.650Z,28.20
2022-09-28T08:56:29.129Z,28.05
2022-09-28T08:59:01.261Z,24.30
2022-09-28T09:01:35.950Z,25.98
2022-09-28T09:04:08.113Z,23.80
2022-09-28T09:07:15.059Z,26.25
2022-09-28T09:10:04.245Z,23.48
2022-09-28T09:12:40.011Z,26.80
2022-09-28T09:15:25.848Z,26.02
2022-09-28T09:18:07.222Z,26.08
2022-09-28T09:20:54.156Z,25.60
2022-09-28T09:23:38.359Z,22.30
2022-09-28T09:26:20.920Z,25.10
2022-09-28T09:29:22.873Z,21.85
2022-09-28T09:32:10.205Z,20.90
2022-09-28T09:34:51.905Z,20.70
2022-09-28T09:38:03.024Z,20.10
2022-09-28T09:41:03.305Z,19.08
2022-09-28T09:44:11.585Z,18.63
2022-09-28T09:47:03.044Z,18.13
2022-09-28T09:49:42.932Z,17.23
2022-09-28T09:52:18.739Z,16.80
2022-09-28T09:54:51.013Z,16.57
2022-09-28T09:57:39.457Z,16.00
2022-09-28T10:00:19.428Z,13.40
2022-09-28T10:03:02.238Z,12.90
2022-09-28T10:05:44.744Z,12.43
2022-09-28T10:08:16.641Z,11.13
2022-09-28T10:10:51.807Z,9.50
2022-09-28T10:13:21.167Z,10.73
2022-09-28T10:15:51.552Z,8.87
2022-09-28T10:18:30.662Z,8.87
2022-09-28T10:21:19.292Z,9.30
2022-09-28T10:23:58.035Z,8.50
2022-09-28T10:26:34.550Z,8.80
2022-09-28T10:29:06.487Z,7.97
2022-09-28T10:31:40.781Z,9.43
2022-09-28T10:34:17.054Z,8.10
2022-09-28T10:36:49.620Z,7.53
2022-09-28T10:39:37.594Z,7.87
2022-09-28T10:42:09.536Z,8.37
2022-09-28T10:44:54.957Z,8.57
2022-09-28T10:47:38.319Z,8.40
2022-09-28T10:50:21.378Z,8.27
2022-09-28T10:52:50.840Z,7.53
2022-09-28T10:55:58.492Z,8.67
2022-09-28T10:58:29.068Z,7.60
2022-09-28T11:01:04.530Z,7.73
2022-09-28T11:03:34.184Z,8.30
2022-09-28T11:06:08.912Z,8.17
2022-09-28T11:08:42.451Z,8.30
2022-09-28T11:11:15.516Z,8.20
2022-09-28T11:13:47.991Z,6.63
2022-09-28T11:16:25.342Z,7.20
2022-09-28T11:18:56.179Z,7.97
2022-09-28T11:21:27.029Z,7.33
2022-09-28T11:24:08.275Z,6.73
2022-09-28T11:26:44.334Z,6.10
2022-09-28T11:29:41.664Z,5.57
2022-09-28T11:32:31.606Z,5.30
2022-09-28T11:35:22.264Z,5.80
2022-09-28T11:38:12.182Z,4.83
2022-09-28T11:41:10.875Z,5.40
2022-09-28T11:43:52.982Z,6.50
2022-09-28T11:46:33.355Z,6.93
2022-09-28T11:49:18.440Z,6.87
2022-09-28T11:51:51.189Z,7.50
2022-09-28T11:54:28.923Z,8.00
2022-09-28T11:57:00.841Z,8.10
2022-09-28T11:59:33.904Z,7.43
2022-09-28T12:02:11.296Z,9.00
2022-09-28T12:04:49.666Z,7.83
2022-09-28T12:07:26.709Z,6.53
2022-09-28T12:09:59.909Z,8.13
2022-09-28T12:12:33.415Z,8.47
2022-09-28T12:15:13.545Z,7.30
2022-09-28T12:17:46.296Z,8.73
2022-09-28T12:20:20.113Z,7.50
2022-09-28T12:22:59.354Z,7.10
2022-09-28T12:25:29.273Z,6.80
2022-09-28T12:28:01.389Z,7.40
2022-09-28T12:30:34.034Z,8.97
2022-09-28T12:33:06.510Z,7.03
2022-09-28T12:35:45.804Z,6.80
2022-09-28T12:38:32.348Z,6.93
2022-09-28T12:41:08.918Z,5.73
2022-09-28T12:44:00.461Z,6.67
2022-09-28T12:46:49.094Z,6.47
2022-09-28T12:50:27.195Z,6.10
2022-09-28T12:52:33.696Z,6.10
2022-09-28T12:55:26.502Z,5.10
2022-09-28T12:58:06.890Z,5.60
2022-09-28T13:00:48.100Z,4.40
2022-09-28T13:03:31.694Z,5.23
2022-09-28T13:06:26.551Z,3.90
2022-09-28T13:09:08.994Z,5.20
2022-09-28T13:11:44.781Z,4.67
2022-09-28T13:14:55.798Z,5.70
2022-09-28T13:17:38.734Z,4.47
2022-09-28T13:20:22.434Z,4.60
2022-09-28T13:22:56.376Z,5.50
2022-09-28T13:25:28.566Z,5.03
2022-09-28T13:28:02.719Z,5.13
2022-09-28T13:30:31.525Z,4.07
2022-09-28T13:33:03.821Z,5.30
2022-09-28T13:35:33.213Z,4.60
2022-09-28T13:38:44.539Z,4.50
2022-09-28T13:41:16.458Z,5.03
2022-09-28T13:44:06.161Z,4.90
2022-09-28T13:46:43.288Z,5.00
2022-09-28T13:49:18.377Z,4.40
2022-09-28T13:52:02.673Z,3.83
2022-09-28T13:54:54.746Z,4.10
2022-09-28T13:57:28.907Z,4.13
2022-09-28T14:00:08.435Z,3.27
2022-09-28T14:02:46.473Z,3.30
2022-09-28T14:05:36.808Z,3.30
2022-09-28T14:08:35.876Z,2.33
2022-09-28T14:11:49.745Z,3.07
2022-09-28T14:14:48.519Z,3.40
2022-09-28T14:17:53.784Z,2.50
2022-09-28T14:20:26.181Z,2.70
2022-09-28T14:23:03.404Z,2.90
2022-09-28T14:25:33.150Z,2.30
2022-09-28T14:28:23.143Z,3.00
2022-09-28T14:30:53.466Z,2.60
2022-09-28T14:33:28.779Z,2.63
2022-09-28T14:35:58.936Z,2.27
2022-09-28T14:38:49.514Z,2.60
2022-09-28T14:41:31.159Z,2.60
2022-09-28T14:44:09.383Z,2.80
2022-09-28T14:46:40.416Z,2.83
2022-09-28T14:49:42.755Z,2.43
2022-09-28T14:52:14.439Z,2.50
2022-09-28T14:54:49.181Z,2.50
2022-09-28T14:57:19.817Z,2.73
2022-09-28T14:59:48.146Z,3.60
2022-09-28T15:02:22.958Z,2.70
2022-09-28T15:04:54.467Z,2.83
2022-09-28T15:07:27.162Z,2.70
2022-09-28T15:09:56.699Z,3.27
2022-09-28T15:12:28.502Z,4.63
2022-09-28T15:14:58.713Z,3.93
2022-09-28T15:17:29.468Z,3.57
2022-09-28T15:20:13.365Z,3.20
2022-09-28T15:22:48.724Z,3.50
2022-09-28T15:25:19.941Z,2.50
2022-09-28T15:27:52.423Z,3.40
2022-09-28T15:30:25.179Z,2.30
2022-09-28T15:32:56.519Z,2.03
2022-09-28T15:35:26.206Z,2.00
2022-09-28T15:37:56.266Z,2.73
2022-09-28T15:40:31.428Z,1.80
2022-09-28T15:42:59.676Z,1.53
2022-09-28T15:45:31.993Z,1.60
2022-09-28T15:48:19.865Z,1.30
2022-09-28T15:51:01.817Z,1.40
2022-09-28T15:53:31.246Z,1.80
2022-09-28T15:56:09.556Z,1.57
2022-09-28T15:58:38.419Z,1.30
2022-09-28T16:01:36.996Z,1.23
2022-09-28T16:04:37.362Z,1.70
2022-09-28T16:07:23.464Z,2.10
2022-09-28T16:09:57.132Z,2.40
2022-09-28T16:12:31.783Z,2.17
2022-09-28T16:15:04.920Z,1.90
2022-09-28T16:17:35.239Z,2.03
2022-09-28T16:20:05.360Z,2.40
2022-09-28T16:22:33.550Z,2.90
2022-09-28T16:25:02.918Z,3.07
2022-09-28T16:27:39.965Z,2.57
2022-09-28T16:30:20.164Z,2.00
2022-09-28T16:32:52.988Z,2.30
2022-09-28T16:35:27.323Z,2.10
2022-09-28T16:38:05.623Z,2.23
2022-09-28T16:40:34.924Z,3.10
2022-09-28T16:43:06.641Z,3.00
2022-09-28T16:45:36.773Z,3.20
2022-09-28T16:48:05.490Z,3.17
2022-09-28T16:50:33.215Z,4.07
2022-09-28T16:53:24.927Z,3.33
2022-09-28T16:55:53.931Z,3.40
2022-09-28T16:58:22.247Z,3.40
2022-09-28T17:00:49.863Z,3.70
2022-09-28T17:03:19.313Z,3.83
2022-09-28T17:05:48.698Z,2.90
2022-09-28T17:08:18.258Z,3.00
2022-09-28T17:13:42.127Z,3.30
2022-09-28T17:16:13.592Z,2.80
2022-09-28T17:18:41.804Z,2.80
2022-09-28T17:21:13.194Z,2.40
2022-09-28T17:23:41.080Z,3.63
2022-09-28T17:26:09.814Z,2.70
2022-09-28T17:28:37.768Z,3.03
2022-09-28T17:31:10.980Z,2.70
2022-09-28T17:33:38.615Z,2.90
2022-09-28T17:36:07.403Z,3.43
2022-09-28T17:38:36.433Z,3.00
2022-09-28T17:41:04.079Z,3.50
2022-09-28T17:43:31.738Z,3.00
2022-09-28T17:45:59.360Z,3.07
2022-09-28T17:48:28.467Z,3.10
2022-09-28T17:50:56.111Z,3.90
2022-09-28T17:53:23.777Z,3.83
2022-09-28T17:55:51.416Z,4.47
2022-09-28T17:58:20.508Z,3.25
2022-09-28T18:00:50.996Z,3.35
2022-09-28T18:03:20.818Z,3.53
2022-09-28T18:05:53.696Z,3.90
2022-09-28T18:08:22.502Z,4.83
2022-09-28T18:10:51.332Z,4.10
2022-09-28T18:13:19.009Z,4.05
2022-09-28T18:15:47.103Z,5.10
2022-09-28T18:18:15.071Z,4.00
2022-09-28T18:20:42.978Z,4.47
2022-09-28T18:23:12.050Z,3.40
2022-09-28T18:25:40.790Z,4.20
2022-09-28T18:28:08.957Z,3.50
2022-09-28T18:30:40.422Z,3.70
2022-09-28T18:33:09.235Z,5.27
2022-09-28T18:35:37.163Z,4.37
2022-09-28T18:38:06.117Z,3.60
2022-09-28T18:40:35.938Z,4.33
2022-09-28T18:43:04.068Z,5.43
2022-09-28T18:45:31.788Z,5.22
2022-09-28T18:47:59.593Z,4.72
2022-09-28T18:50:27.386Z,4.63
2022-09-28T18:53:11.185Z,4.70
2022-09-28T18:55:40.890Z,4.07
2022-09-28T18:58:09.230Z,6.27
2022-09-28T19:00:39.793Z,7.27
2022-09-28T19:03:08.401Z,6.17
2022-09-28T19:05:36.103Z,5.20
2022-09-28T19:08:04.078Z,6.20
2022-09-28T19:10:31.739Z,4.20
2022-09-28T19:13:00.727Z,5.30
2022-09-28T19:15:28.353Z,4.33
2022-09-28T19:17:57.025Z,5.00
2022-09-28T19:20:24.801Z,5.05
2022-09-28T19:22:52.398Z,5.23
2022-09-28T19:25:20.050Z,4.50
2022-09-28T19:27:48.698Z,4.40
2022-09-28T19:30:18.003Z,4.07
2022-09-28T19:32:45.636Z,4.60
2022-09-28T19:35:13.428Z,5.10
2022-09-28T19:37:42.113Z,4.97
2022-09-28T19:40:10.268Z,3.97
2022-09-28T19:42:39.463Z,3.97
2022-09-28T19:45:08.826Z,2.73
2022-09-28T19:47:38.947Z,3.05
2022-09-28T19:50:07.440Z,2.85
2022-09-28T19:52:35.098Z,2.70
2022-09-28T19:55:02.988Z,3.28
2022-09-28T19:57:33.238Z,3.75
2022-09-28T20:00:03.492Z,2.90
2022-09-28T20:02:34.817Z,2.97
2022-09-28T20:05:04.402Z,3.50
2022-09-28T20:07:33.297Z,3.65
2022-09-28T20:10:01.006Z,4.30
2022-09-28T20:12:28.673Z,4.00
2022-09-28T20:14:56.432Z,4.60
2022-09-28T20:17:24.119Z,3.92
2022-09-28T20:19:52.377Z,4.32
2022-09-28T20:22:21.484Z,5.15
2022-09-28T20:24:49.256Z,4.40
2022-09-28T20:27:16.894Z,5.82
2022-09-28T20:29:44.632Z,4.57
2022-09-28T20:32:12.456Z,4.32
2022-09-28T20:34:40.176Z,6.18
2022-09-28T20:37:07.821Z,5.63
2022-09-28T20:39:38.609Z,6.15
2022-09-28T20:42:09.139Z,5.88
2022-09-28T20:44:36.833Z,6.22
2022-09-28T20:47:04.457Z,5.78
2022-09-28T20:49:32.154Z,5.80
2022-09-28T20:51:59.829Z,5.95
2022-09-28T20:54:27.582Z,6.15
2022-09-28T20:56:56.751Z,7.07
2022-09-28T20:59:26.395Z,7.32
2022-09-28T21:01:54.254Z,6.97
2022-09-28T21:04:21.977Z,8.25
2022-09-28T21:06:49.613Z,7.90
2022-09-28T21:09:17.400Z,7.72
2022-09-28T21:11:45.051Z,8.38
2022-09-28T21:14:13.984Z,7.70
2022-09-28T21:16:41.642Z,9.18
2022-09-28T21:19:09.283Z,9.00
2022-09-28T21:21:36.969Z,8.80
2022-09-28T21:24:04.924Z,9.60
2022-09-28T21:26:33.381Z,9.57
2022-09-28T21:29:02.584Z,9.00
2022-09-28T21:31:33.829Z,10.18
2022-09-28T21:34:01.710Z,8.43
2022-09-28T21:36:29.504Z,9.90
2022-09-28T21:38:57.404Z,9.80
2022-09-28T21:41:25.611Z,9.98
2022-09-28T21:43:53.593Z,8.80
2022-09-28T21:46:21.392Z,11.10
2022-09-28T21:48:54.256Z,9.88
2022-09-28T21:51:22.329Z,10.13
2022-09-28T21:53:50.228Z,9.18
2022-09-28T21:56:18.483Z,9.80
2022-09-28T21:58:46.342Z,10.73
2022-09-28T22:01:16.492Z,9.30
2022-09-28T22:03:46.587Z,8.45
2022-09-28T22:06:16.986Z,12.65
2022-09-28T22:08:45.581Z,11.45
2022-09-28T22:11:15.398Z,11.07
2022-09-28T22:13:44.763Z,11.70
2022-09-28T22:16:14.331Z,11.45
2022-09-28T22:18:42.390Z,11.43
2022-09-28T22:21:12.006Z,10.38
2022-09-28T22:23:41.531Z,10.38
2022-09-28T22:26:11.786Z,11.90
2022-09-28T22:28:40.726Z,11.52
2022-09-28T22:31:08.467Z,10.70
2022-09-28T22:33:36.206Z,9.90
2022-09-28T22:36:03.934Z,11.85
2022-09-28T22:38:33.029Z,12.23
2022-09-28T22:41:03.650Z,10.85
2022-09-28T22:43:32.189Z,11.25
2022-09-28T22:46:04.826Z,11.45
2022-09-28T22:48:33.375Z,14.07
2022-09-28T22:51:01.349Z,12.95
2022-09-28T22:53:29.801Z,11.55
2022-09-28T22:55:58.535Z,11.50
2022-09-28T22:58:27.624Z,11.93
2022-09-28T23:00:57.776Z,11.65
2022-09-28T23:03:25.537Z,15.10
2022-09-28T23:05:54.140Z,13.48
2022-09-28T23:08:22.958Z,11.80
2022-09-28T23:10:51.007Z,11.77
2022-09-28T23:13:19.143Z,11.80
2022-09-28T23:15:57.090Z,11.95
2022-09-28T23:18:26.043Z,11.10
2022-09-28T23:20:54.858Z,11.32
2022-09-28T23:23:22.857Z,10.82
2022-09-28T23:25:50.553Z,11.63
2022-09-28T23:28:18.622Z,11.63
2022-09-28T23:30:46.348Z,11.35
2022-09-28T23:33:16.612Z,11.93
2022-09-28T23:35:44.700Z,11.07
2022-09-28T23:38:13.626Z,13.30
2022-09-28T23:40:41.573Z,11.77
2022-09-28T23:43:09.516Z,13.63
2022-09-28T23:45:37.170Z,12.90
2022-09-28T23:48:04.988Z,11.30
2022-09-28T23:50:33.957Z,14.10
2022-09-28T23:53:01.772Z,12.30
2022-09-28T23:55:29.436Z,11.75
2022-09-28T23:57:58.602Z,12.10
